sensor_id;sensor_type;location;lat;lon;timestamp;temperature;humidity
68177;DHT22;56478;50.982;7.032;2022-11-20T00:00:53;5.37;71.01
68177;DHT22;56478;50.982;7.032;2022-11-20T00:03:19;5.43;70.00
68177;DHT22;56478;50.982;7.032;2022-11-20T00:05:44;5.40;70.71
68177;DHT22;56478;50.982;7.032;2022-11-20T00:08:10;5.34;69.87
68177;DHT22;56478;50.982;7.032;2022-11-20T00:10:37;5.33;71.28
68177;DHT22;56478;50.982;7.032;2022-11-20T00:13:02;5.27;69.80
68177;DHT22;56478;50.982;7.032;2022-11-20T00:15:28;5.16;70.62
68177;DHT22;56478;50.982;7.032;2022-11-20T00:17:53;5.15;69.67
68177;DHT22;56478;50.982;7.032;2022-11-20T00:20:19;5.13;70.09
68177;DHT22;56478;50.982;7.032;2022-11-20T00:22:44;5.13;70.97
68177;DHT22;56478;50.982;7.032;2022-11-20T00:25:10;5.16;71.53
68177;DHT22;56478;50.982;7.032;2022-11-20T00:27:36;5.26;72.38
68177;DHT22;56478;50.982;7.032;2022-11-20T00:30:03;5.24;71.19
68177;DHT22;56478;50.982;7.032;2022-11-20T00:32:29;5.24;71.76
68177;DHT22;56478;50.982;7.032;2022-11-20T00:34:54;5.30;71.42
68177;DHT22;56478;50.982;7.032;2022-11-20T00:37:20;5.31;70.89
68177;DHT22;56478;50.982;7.032;2022-11-20T00:39:45;5.31;70.67
68177;DHT22;56478;50.982;7.032;2022-11-20T00:42:11;5.23;70.28
68177;DHT22;56478;50.982;7.032;2022-11-20T00:44:36;5.16;70.72
68177;DHT22;56478;50.982;7.032;2022-11-20T00:47:01;5.12;70.69
68177;DHT22;56478;50.982;7.032;2022-11-20T00:49:27;5.22;71.71
68177;DHT22;56478;50.982;7.032;2022-11-20T00:51:52;5.23;71.33
68177;DHT22;56478;50.982;7.032;2022-11-20T00:54:18;5.20;70.79
68177;DHT22;56478;50.982;7.032;2022-11-20T00:56:43;5.26;70.66
68177;DHT22;56478;50.982;7.032;2022-11-20T00:59:09;5.24;70.87
68177;DHT22;56478;50.982;7.032;2022-11-20T01:01:36;5.20;69.78
68177;DHT22;56478;50.982;7.032;2022-11-20T01:04:02;5.13;69.15
68177;DHT22;56478;50.982;7.032;2022-11-20T01:06:30;5.03;70.00
68177;DHT22;56478;50.982;7.032;2022-11-20T01:08:58;5.02;71.07
68177;DHT22;56478;50.982;7.032;2022-11-20T01:11:35;5.11;72.06
68177;DHT22;56478;50.982;7.032;2022-11-20T01:14:04;5.11;72.74
68177;DHT22;56478;50.982;7.032;2022-11-20T01:16:35;5.18;71.22
68177;DHT22;56478;50.982;7.032;2022-11-20T01:19:04;5.18;70.64
68177;DHT22;56478;50.982;7.032;2022-11-20T01:21:32;5.13;70.86
68177;DHT22;56478;50.982;7.032;2022-11-20T01:23:58;5.16;71.08
68177;DHT22;56478;50.982;7.032;2022-11-20T01:26:27;5.11;70.52
68177;DHT22;56478;50.982;7.032;2022-11-20T01:28:53;5.16;71.00
68177;DHT22;56478;50.982;7.032;2022-11-20T01:31:22;5.18;71.27
68177;DHT22;56478;50.982;7.032;2022-11-20T01:33:50;5.19;70.27
68177;DHT22;56478;50.982;7.032;2022-11-20T01:36:18;5.18;69.84
68177;DHT22;56478;50.982;7.032;2022-11-20T01:38:44;5.16;69.66
68177;DHT22;56478;50.982;7.032;2022-11-20T01:41:11;5.13;70.62
68177;DHT22;56478;50.982;7.032;2022-11-20T01:43:57;4.97;71.13
68177;DHT22;56478;50.982;7.032;2022-11-20T01:46:22;5.08;71.42
68177;DHT22;56478;50.982;7.032;2022-11-20T01:51:44;5.11;71.30
68177;DHT22;56478;50.982;7.032;2022-11-20T01:54:16;5.16;70.76
68177;DHT22;56478;50.982;7.032;2022-11-20T01:56:44;5.12;70.19
68177;DHT22;56478;50.982;7.032;2022-11-20T01:59:13;4.96;71.69
68177;DHT22;56478;50.982;7.032;2022-11-20T02:01:40;4.95;71.20
68177;DHT22;56478;50.982;7.032;2022-11-20T02:04:08;4.99;70.27
68177;DHT22;56478;50.982;7.032;2022-11-20T02:06:47;4.99;69.77
68177;DHT22;56478;50.982;7.032;2022-11-20T02:09:14;4.92;70.12
68177;DHT22;56478;50.982;7.032;2022-11-20T02:11:40;4.92;71.49
68177;DHT22;56478;50.982;7.032;2022-11-20T02:14:06;4.97;70.23
68177;DHT22;56478;50.982;7.032;2022-11-20T02:16:42;4.97;71.05
68177;DHT22;56478;50.982;7.032;2022-11-20T02:19:21;4.97;70.53
68177;DHT22;56478;50.982;7.032;2022-11-20T02:24:27;5.02;72.08
68177;DHT22;56478;50.982;7.032;2022-11-20T02:27:00;5.06;71.35
68177;DHT22;56478;50.982;7.032;2022-11-20T02:31:55;5.00;71.59
68177;DHT22;56478;50.982;7.032;2022-11-20T02:34:22;5.00;71.07
68177;DHT22;56478;50.982;7.032;2022-11-20T02:36:49;5.00;71.20
68177;DHT22;56478;50.982;7.032;2022-11-20T02:39:16;5.00;70.68
68177;DHT22;56478;50.982;7.032;2022-11-20T02:41:44;5.06;70.88
68177;DHT22;56478;50.982;7.032;2022-11-20T02:44:09;5.02;70.99
68177;DHT22;56478;50.982;7.032;2022-11-20T02:46:35;5.00;70.14
68177;DHT22;56478;50.982;7.032;2022-11-20T02:49:02;5.00;70.66
68177;DHT22;56478;50.982;7.032;2022-11-20T02:51:28;4.88;71.00
68177;DHT22;56478;50.982;7.032;2022-11-20T02:53:53;4.92;70.91
68177;DHT22;56478;50.982;7.032;2022-11-20T02:56:19;4.89;71.76
68177;DHT22;56478;50.982;7.032;2022-11-20T02:58:45;4.85;72.48
68177;DHT22;56478;50.982;7.032;2022-11-20T03:01:10;4.84;71.10
68177;DHT22;56478;50.982;7.032;2022-11-20T03:03:36;4.72;72.16
68177;DHT22;56478;50.982;7.032;2022-11-20T03:06:01;4.72;71.76
68177;DHT22;56478;50.982;7.032;2022-11-20T03:08:27;4.62;72.33
68177;DHT22;56478;50.982;7.032;2022-11-20T03:10:53;4.65;71.97
68177;DHT22;56478;50.982;7.032;2022-11-20T03:13:22;4.65;72.48
68177;DHT22;56478;50.982;7.032;2022-11-20T03:15:47;4.84;72.87
68177;DHT22;56478;50.982;7.032;2022-11-20T03:18:13;4.77;71.78
68177;DHT22;56478;50.982;7.032;2022-11-20T03:20:39;4.78;72.89
68177;DHT22;56478;50.982;7.032;2022-11-20T03:23:04;4.57;73.07
68177;DHT22;56478;50.982;7.032;2022-11-20T03:25:33;4.58;73.10
68177;DHT22;56478;50.982;7.032;2022-11-20T03:27:58;4.57;73.55
68177;DHT22;56478;50.982;7.032;2022-11-20T03:30:24;4.68;73.11
68177;DHT22;56478;50.982;7.032;2022-11-20T03:32:53;4.69;72.90
68177;DHT22;56478;50.982;7.032;2022-11-20T03:35:19;4.62;72.86
68177;DHT22;56478;50.982;7.032;2022-11-20T03:37:44;4.69;72.67
68177;DHT22;56478;50.982;7.032;2022-11-20T03:40:11;4.74;73.77
68177;DHT22;56478;50.982;7.032;2022-11-20T03:42:37;4.77;73.39
68177;DHT22;56478;50.982;7.032;2022-11-20T03:45:13;4.71;73.04
68177;DHT22;56478;50.982;7.032;2022-11-20T03:47:39;4.88;72.92
68177;DHT22;56478;50.982;7.032;2022-11-20T03:50:04;4.85;72.63
68177;DHT22;56478;50.982;7.032;2022-11-20T03:52:30;4.88;72.95
68177;DHT22;56478;50.982;7.032;2022-11-20T03:54:55;4.85;72.41
68177;DHT22;56478;50.982;7.032;2022-11-20T03:57:21;4.91;72.79
68177;DHT22;56478;50.982;7.032;2022-11-20T03:59:46;4.91;72.81
68177;DHT22;56478;50.982;7.032;2022-11-20T04:02:11;4.89;73.29
68177;DHT22;56478;50.982;7.032;2022-11-20T04:04:37;4.93;72.75
68177;DHT22;56478;50.982;7.032;2022-11-20T04:07:02;4.95;72.65
68177;DHT22;56478;50.982;7.032;2022-11-20T04:09:28;5.03;72.59
68177;DHT22;56478;50.982;7.032;2022-11-20T04:11:53;4.92;72.16
68177;DHT22;56478;50.982;7.032;2022-11-20T04:14:19;4.89;72.86
68177;DHT22;56478;50.982;7.032;2022-11-20T04:16:44;4.71;73.24
68177;DHT22;56478;50.982;7.032;2022-11-20T04:19:12;4.69;73.22
68177;DHT22;56478;50.982;7.032;2022-11-20T04:21:38;4.71;73.35
68177;DHT22;56478;50.982;7.032;2022-11-20T04:24:04;4.78;73.39
68177;DHT22;56478;50.982;7.032;2022-11-20T04:26:30;4.74;73.98
68177;DHT22;56478;50.982;7.032;2022-11-20T04:28:56;4.71;74.05
68177;DHT22;56478;50.982;7.032;2022-11-20T04:31:28;4.69;73.51
68177;DHT22;56478;50.982;7.032;2022-11-20T04:33:54;4.61;74.24
68177;DHT22;56478;50.982;7.032;2022-11-20T04:36:25;4.50;74.81
68177;DHT22;56478;50.982;7.032;2022-11-20T04:38:56;4.40;75.13
68177;DHT22;56478;50.982;7.032;2022-11-20T04:41:24;4.43;75.04
68177;DHT22;56478;50.982;7.032;2022-11-20T04:43:55;4.41;76.01
68177;DHT22;56478;50.982;7.032;2022-11-20T04:46:25;4.22;77.04
68177;DHT22;56478;50.982;7.032;2022-11-20T04:48:51;4.34;77.65
68177;DHT22;56478;50.982;7.032;2022-11-20T04:51:16;4.44;76.34
68177;DHT22;56478;50.982;7.032;2022-11-20T04:53:42;4.49;76.83
68177;DHT22;56478;50.982;7.032;2022-11-20T04:56:09;4.53;75.43
68177;DHT22;56478;50.982;7.032;2022-11-20T04:58:36;4.65;76.44
68177;DHT22;56478;50.982;7.032;2022-11-20T05:03:28;4.62;76.03
68177;DHT22;56478;50.982;7.032;2022-11-20T05:05:53;4.69;76.45
68177;DHT22;56478;50.982;7.032;2022-11-20T05:08:19;4.82;75.70
68177;DHT22;56478;50.982;7.032;2022-11-20T05:10:44;4.86;75.63
68177;DHT22;56478;50.982;7.032;2022-11-20T05:13:09;4.85;74.78
68177;DHT22;56478;50.982;7.032;2022-11-20T05:15:35;4.91;75.97
68177;DHT22;56478;50.982;7.032;2022-11-20T05:18:00;4.93;75.65
68177;DHT22;56478;50.982;7.032;2022-11-20T05:20:26;4.95;75.00
68177;DHT22;56478;50.982;7.032;2022-11-20T05:22:51;5.00;74.81
68177;DHT22;56478;50.982;7.032;2022-11-20T05:25:17;4.93;74.46
68177;DHT22;56478;50.982;7.032;2022-11-20T05:27:42;4.88;74.51
68177;DHT22;56478;50.982;7.032;2022-11-20T05:30:08;4.96;74.84
68177;DHT22;56478;50.982;7.032;2022-11-20T05:32:34;5.02;75.57
68177;DHT22;56478;50.982;7.032;2022-11-20T05:34:59;4.97;74.83
68177;DHT22;56478;50.982;7.032;2022-11-20T05:37:24;4.96;75.00
68177;DHT22;56478;50.982;7.032;2022-11-20T05:39:50;5.03;75.16
68177;DHT22;56478;50.982;7.032;2022-11-20T05:42:15;5.03;74.74
68177;DHT22;56478;50.982;7.032;2022-11-20T05:44:57;5.02;74.15
68177;DHT22;56478;50.982;7.032;2022-11-20T05:47:23;4.96;73.67
68177;DHT22;56478;50.982;7.032;2022-11-20T05:49:48;4.96;74.20
68177;DHT22;56478;50.982;7.032;2022-11-20T05:52:14;4.86;74.01
68177;DHT22;56478;50.982;7.032;2022-11-20T05:54:39;4.91;74.54
68177;DHT22;56478;50.982;7.032;2022-11-20T05:57:05;4.89;74.23
68177;DHT22;56478;50.982;7.032;2022-11-20T05:59:30;4.95;74.53
68177;DHT22;56478;50.982;7.032;2022-11-20T06:01:56;4.84;74.44
68177;DHT22;56478;50.982;7.032;2022-11-20T06:04:21;4.81;74.47
68177;DHT22;56478;50.982;7.032;2022-11-20T06:06:47;4.81;74.37
68177;DHT22;56478;50.982;7.032;2022-11-20T06:09:12;4.91;74.30
68177;DHT22;56478;50.982;7.032;2022-11-20T06:11:38;4.92;74.84
68177;DHT22;56478;50.982;7.032;2022-11-20T06:14:03;4.93;74.49
68177;DHT22;56478;50.982;7.032;2022-11-20T06:16:29;4.91;74.51
68177;DHT22;56478;50.982;7.032;2022-11-20T06:18:54;5.00;74.97
68177;DHT22;56478;50.982;7.032;2022-11-20T06:21:21;4.99;74.46
68177;DHT22;56478;50.982;7.032;2022-11-20T06:23:48;4.96;74.36
68177;DHT22;56478;50.982;7.032;2022-11-20T06:26:19;4.96;74.28
68177;DHT22;56478;50.982;7.032;2022-11-20T06:28:45;4.91;74.71
68177;DHT22;56478;50.982;7.032;2022-11-20T06:31:12;4.95;74.15
68177;DHT22;56478;50.982;7.032;2022-11-20T06:33:39;4.89;74.30
68177;DHT22;56478;50.982;7.032;2022-11-20T06:36:04;4.79;75.40
68177;DHT22;56478;50.982;7.032;2022-11-20T06:38:30;4.71;75.03
68177;DHT22;56478;50.982;7.032;2022-11-20T06:40:56;4.57;76.52
68177;DHT22;56478;50.982;7.032;2022-11-20T06:43:22;4.51;76.48
68177;DHT22;56478;50.982;7.032;2022-11-20T06:45:55;4.53;77.05
68177;DHT22;56478;50.982;7.032;2022-11-20T06:48:22;4.50;77.24
68177;DHT22;56478;50.982;7.032;2022-11-20T06:50:48;4.53;77.70
68177;DHT22;56478;50.982;7.032;2022-11-20T06:53:13;4.57;76.62
68177;DHT22;56478;50.982;7.032;2022-11-20T06:55:42;4.56;76.93
68177;DHT22;56478;50.982;7.032;2022-11-20T06:58:07;4.64;76.82
68177;DHT22;56478;50.982;7.032;2022-11-20T07:00:33;4.60;78.01
68177;DHT22;56478;50.982;7.032;2022-11-20T07:03:03;4.61;77.72
68177;DHT22;56478;50.982;7.032;2022-11-20T07:05:28;4.60;77.18
68177;DHT22;56478;50.982;7.032;2022-11-20T07:07:56;4.58;77.09
68177;DHT22;56478;50.982;7.032;2022-11-20T07:10:21;4.64;77.95
68177;DHT22;56478;50.982;7.032;2022-11-20T07:12:51;4.72;77.53
68177;DHT22;56478;50.982;7.032;2022-11-20T07:15:17;4.72;76.71
68177;DHT22;56478;50.982;7.032;2022-11-20T07:17:43;4.77;76.66
68177;DHT22;56478;50.982;7.032;2022-11-20T07:20:09;4.72;76.59
68177;DHT22;56478;50.982;7.032;2022-11-20T07:22:34;4.77;76.69
68177;DHT22;56478;50.982;7.032;2022-11-20T07:25:00;4.77;76.41
68177;DHT22;56478;50.982;7.032;2022-11-20T07:27:27;4.78;77.18
68177;DHT22;56478;50.982;7.032;2022-11-20T07:29:52;4.71;76.67
68177;DHT22;56478;50.982;7.032;2022-11-20T07:32:18;4.78;76.39
68177;DHT22;56478;50.982;7.032;2022-11-20T07:34:43;4.84;76.00
68177;DHT22;56478;50.982;7.032;2022-11-20T07:37:09;4.89;76.01
68177;DHT22;56478;50.982;7.032;2022-11-20T07:39:34;4.92;76.13
68177;DHT22;56478;50.982;7.032;2022-11-20T07:41:59;4.88;76.06
68177;DHT22;56478;50.982;7.032;2022-11-20T07:44:25;4.88;76.29
68177;DHT22;56478;50.982;7.032;2022-11-20T07:46:50;4.92;77.09
68177;DHT22;56478;50.982;7.032;2022-11-20T07:49:16;4.97;77.41
68177;DHT22;56478;50.982;7.032;2022-11-20T07:51:41;5.02;76.47
68177;DHT22;56478;50.982;7.032;2022-11-20T07:54:07;5.13;77.26
68177;DHT22;56478;50.982;7.032;2022-11-20T07:56:32;5.16;77.02
68177;DHT22;56478;50.982;7.032;2022-11-20T07:58:59;5.15;77.04
68177;DHT22;56478;50.982;7.032;2022-11-20T08:01:24;5.24;76.78
68177;DHT22;56478;50.982;7.032;2022-11-20T08:03:50;5.27;76.72
68177;DHT22;56478;50.982;7.032;2022-11-20T08:06:15;5.33;76.57
68177;DHT22;56478;50.982;7.032;2022-11-20T08:08:41;5.24;77.00
68177;DHT22;56478;50.982;7.032;2022-11-20T08:11:06;5.33;76.16
68177;DHT22;56478;50.982;7.032;2022-11-20T08:13:50;5.26;76.10
68177;DHT22;56478;50.982;7.032;2022-11-20T08:16:34;5.34;75.76
68177;DHT22;56478;50.982;7.032;2022-11-20T08:19:00;5.36;76.03
68177;DHT22;56478;50.982;7.032;2022-11-20T08:21:25;5.37;75.97
68177;DHT22;56478;50.982;7.032;2022-11-20T08:23:51;5.38;75.67
68177;DHT22;56478;50.982;7.032;2022-11-20T08:26:16;5.47;75.48
68177;DHT22;56478;50.982;7.032;2022-11-20T08:28:42;5.55;74.98
68177;DHT22;56478;50.982;7.032;2022-11-20T08:31:07;5.55;75.50
68177;DHT22;56478;50.982;7.032;2022-11-20T08:33:34;5.61;74.78
68177;DHT22;56478;50.982;7.032;2022-11-20T08:36:03;5.71;74.73
68177;DHT22;56478;50.982;7.032;2022-11-20T08:38:29;5.51;74.66
68177;DHT22;56478;50.982;7.032;2022-11-20T08:41:03;5.46;74.25
68177;DHT22;56478;50.982;7.032;2022-11-20T08:43:47;5.51;74.66
68177;DHT22;56478;50.982;7.032;2022-11-20T08:46:12;5.58;74.06
68177;DHT22;56478;50.982;7.032;2022-11-20T08:48:38;5.46;74.82
68177;DHT22;56478;50.982;7.032;2022-11-20T08:51:04;5.69;73.57
68177;DHT22;56478;50.982;7.032;2022-11-20T08:53:29;5.71;74.04
68177;DHT22;56478;50.982;7.032;2022-11-20T08:55:56;5.55;74.08
68177;DHT22;56478;50.982;7.032;2022-11-20T08:58:23;5.64;74.46
68177;DHT22;56478;50.982;7.032;2022-11-20T09:00:48;5.82;74.38
68177;DHT22;56478;50.982;7.032;2022-11-20T09:03:13;5.91;73.64
68177;DHT22;56478;50.982;7.032;2022-11-20T09:05:39;6.24;72.25
68177;DHT22;56478;50.982;7.032;2022-11-20T09:08:04;6.06;72.76
68177;DHT22;56478;50.982;7.032;2022-11-20T09:10:30;6.21;73.35
68177;DHT22;56478;50.982;7.032;2022-11-20T09:12:56;6.24;72.65
68177;DHT22;56478;50.982;7.032;2022-11-20T09:15:21;6.52;71.65
68177;DHT22;56478;50.982;7.032;2022-11-20T09:17:54;6.64;70.93
68177;DHT22;56478;50.982;7.032;2022-11-20T09:20:20;6.56;71.51
68177;DHT22;56478;50.982;7.032;2022-11-20T09:22:46;6.80;70.29
68177;DHT22;56478;50.982;7.032;2022-11-20T09:25:11;6.88;69.45
68177;DHT22;56478;50.982;7.032;2022-11-20T09:27:37;6.71;69.26
68177;DHT22;56478;50.982;7.032;2022-11-20T09:30:03;6.58;70.02
68177;DHT22;56478;50.982;7.032;2022-11-20T09:32:29;6.35;71.45
68177;DHT22;56478;50.982;7.032;2022-11-20T09:34:55;6.24;71.75
68177;DHT22;56478;50.982;7.032;2022-11-20T09:37:20;7.00;69.99
68177;DHT22;56478;50.982;7.032;2022-11-20T09:39:45;7.25;68.66
68177;DHT22;56478;50.982;7.032;2022-11-20T09:42:22;7.41;68.49
68177;DHT22;56478;50.982;7.032;2022-11-20T09:45:05;7.75;67.06
68177;DHT22;56478;50.982;7.032;2022-11-20T09:48:00;7.98;66.73
68177;DHT22;56478;50.982;7.032;2022-11-20T09:50:37;8.03;65.51
68177;DHT22;56478;50.982;7.032;2022-11-20T09:55:45;7.56;65.48
68177;DHT22;56478;50.982;7.032;2022-11-20T09:58:42;7.30;66.36
68177;DHT22;56478;50.982;7.032;2022-11-20T10:01:21;7.07;67.95
68177;DHT22;56478;50.982;7.032;2022-11-20T10:04:03;7.08;67.52
68177;DHT22;56478;50.982;7.032;2022-11-20T10:06:32;7.04;67.92
68177;DHT22;56478;50.982;7.032;2022-11-20T10:09:06;7.17;66.53
68177;DHT22;56478;50.982;7.032;2022-11-20T10:25:10;7.23;68.08
68177;DHT22;56478;50.982;7.032;2022-11-20T10:30:22;7.00;68.53
68177;DHT22;56478;50.982;7.032;2022-11-20T10:33:21;6.83;69.88
68177;DHT22;56478;50.982;7.032;2022-11-20T10:35:59;6.52;71.10
68177;DHT22;56478;50.982;7.032;2022-11-20T10:38:37;6.55;71.88
68177;DHT22;56478;50.982;7.032;2022-11-20T10:41:05;6.41;72.16
68177;DHT22;56478;50.982;7.032;2022-11-20T10:44:21;6.17;72.80
68177;DHT22;56478;50.982;7.032;2022-11-20T10:47:15;6.65;71.48
68177;DHT22;56478;50.982;7.032;2022-11-20T10:49:41;6.71;70.65
68177;DHT22;56478;50.982;7.032;2022-11-20T10:57:55;6.83;70.42
68177;DHT22;56478;50.982;7.032;2022-11-20T11:00:23;6.73;70.74
68177;DHT22;56478;50.982;7.032;2022-11-20T11:02:50;6.61;71.28
68177;DHT22;56478;50.982;7.032;2022-11-20T11:08:03;6.61;71.21
68177;DHT22;56478;50.982;7.032;2022-11-20T11:10:54;6.54;71.41
68177;DHT22;56478;50.982;7.032;2022-11-20T11:13:25;6.58;72.38
68177;DHT22;56478;50.982;7.032;2022-11-20T11:15:51;6.61;72.62
68177;DHT22;56478;50.982;7.032;2022-11-20T11:18:29;6.69;72.04
68177;DHT22;56478;50.982;7.032;2022-11-20T11:20:56;6.67;72.17
68177;DHT22;56478;50.982;7.032;2022-11-20T11:23:34;6.82;71.20
68177;DHT22;56478;50.982;7.032;2022-11-20T11:26:03;6.79;71.36
68177;DHT22;56478;50.982;7.032;2022-11-20T11:28:29;6.79;71.35
68177;DHT22;56478;50.982;7.032;2022-11-20T11:30:55;6.71;71.69
68177;DHT22;56478;50.982;7.032;2022-11-20T11:33:26;6.56;72.24
68177;DHT22;56478;50.982;7.032;2022-11-20T11:35:59;6.58;72.52
68177;DHT22;56478;50.982;7.032;2022-11-20T11:38:38;6.61;72.45
68177;DHT22;56478;50.982;7.032;2022-11-20T11:41:08;6.48;73.19
68177;DHT22;56478;50.982;7.032;2022-11-20T11:43:36;6.54;72.66
68177;DHT22;56478;50.982;7.032;2022-11-20T11:49:16;6.52;72.79
68177;DHT22;56478;50.982;7.032;2022-11-20T11:52:16;6.45;73.07
68177;DHT22;56478;50.982;7.032;2022-11-20T11:54:55;6.49;73.28
68177;DHT22;56478;50.982;7.032;2022-11-20T12:00:03;6.42;73.31
68177;DHT22;56478;50.982;7.032;2022-11-20T12:08:05;6.24;74.05
68177;DHT22;56478;50.982;7.032;2022-11-20T12:10:57;6.24;74.65
68177;DHT22;56478;50.982;7.032;2022-11-20T12:16:11;6.28;74.04
68177;DHT22;56478;50.982;7.032;2022-11-20T12:18:38;6.23;74.30
68177;DHT22;56478;50.982;7.032;2022-11-20T12:21:18;6.34;74.12
68177;DHT22;56478;50.982;7.032;2022-11-20T12:29:13;6.65;73.71
68177;DHT22;56478;50.982;7.032;2022-11-20T12:40:00;6.65;73.63
68177;DHT22;56478;50.982;7.032;2022-11-20T12:45:33;6.65;73.32
68177;DHT22;56478;50.982;7.032;2022-11-20T12:48:26;6.69;73.22
68177;DHT22;56478;50.982;7.032;2022-11-20T13:01:55;6.71;73.54
68177;DHT22;56478;50.982;7.032;2022-11-20T13:04:38;6.86;73.47
68177;DHT22;56478;50.982;7.032;2022-11-20T13:07:12;7.07;73.10
68177;DHT22;56478;50.982;7.032;2022-11-20T13:09:46;7.13;72.28
68177;DHT22;56478;50.982;7.032;2022-11-20T13:12:35;7.01;72.34
68177;DHT22;56478;50.982;7.032;2022-11-20T13:15:23;6.88;73.06
68177;DHT22;56478;50.982;7.032;2022-11-20T13:17:55;6.80;73.29
68177;DHT22;56478;50.982;7.032;2022-11-20T13:20:23;6.86;72.86
68177;DHT22;56478;50.982;7.032;2022-11-20T13:22:50;6.79;73.44
68177;DHT22;56478;50.982;7.032;2022-11-20T13:25:30;6.85;73.81
68177;DHT22;56478;50.982;7.032;2022-11-20T13:27:57;6.93;72.81
68177;DHT22;56478;50.982;7.032;2022-11-20T13:30:25;6.95;73.10
68177;DHT22;56478;50.982;7.032;2022-11-20T13:32:56;6.89;73.19
68177;DHT22;56478;50.982;7.032;2022-11-20T13:35:29;6.93;73.04
68177;DHT22;56478;50.982;7.032;2022-11-20T13:40:36;6.95;73.43
68177;DHT22;56478;50.982;7.032;2022-11-20T13:43:19;7.03;73.09
68177;DHT22;56478;50.982;7.032;2022-11-20T13:46:06;7.00;73.20
68177;DHT22;56478;50.982;7.032;2022-11-20T13:48:44;6.92;73.74
68177;DHT22;56478;50.982;7.032;2022-11-20T13:51:34;6.99;73.96
68177;DHT22;56478;50.982;7.032;2022-11-20T13:59:39;7.15;73.30
68177;DHT22;56478;50.982;7.032;2022-11-20T14:02:14;7.10;74.13
68177;DHT22;56478;50.982;7.032;2022-11-20T14:04:43;6.97;74.17
68177;DHT22;56478;50.982;7.032;2022-11-20T14:07:10;6.88;74.78
68177;DHT22;56478;50.982;7.032;2022-11-20T14:09:36;6.90;76.04
68177;DHT22;56478;50.982;7.032;2022-11-20T14:12:03;7.00;75.44
68177;DHT22;56478;50.982;7.032;2022-11-20T14:14:30;7.08;75.06
68177;DHT22;56478;50.982;7.032;2022-11-20T14:17:53;7.13;74.64
68177;DHT22;56478;50.982;7.032;2022-11-20T14:19:55;7.10;74.44
68177;DHT22;56478;50.982;7.032;2022-11-20T14:22:25;6.96;74.76
68177;DHT22;56478;50.982;7.032;2022-11-20T14:27:39;6.79;76.20
68177;DHT22;56478;50.982;7.032;2022-11-20T14:30:12;6.86;76.06
68177;DHT22;56478;50.982;7.032;2022-11-20T14:32:38;6.95;75.48
68177;DHT22;56478;50.982;7.032;2022-11-20T14:35:08;6.92;75.81
68177;DHT22;56478;50.982;7.032;2022-11-20T14:37:37;6.95;75.69
68177;DHT22;56478;50.982;7.032;2022-11-20T14:40:46;6.95;75.79
68177;DHT22;56478;50.982;7.032;2022-11-20T14:42:53;6.96;75.91
68177;DHT22;56478;50.982;7.032;2022-11-20T14:45:19;6.92;76.07
68177;DHT22;56478;50.982;7.032;2022-11-20T14:47:44;6.86;76.29
68177;DHT22;56478;50.982;7.032;2022-11-20T14:50:31;6.82;76.43
68177;DHT22;56478;50.982;7.032;2022-11-20T14:52:58;6.88;76.45
68177;DHT22;56478;50.982;7.032;2022-11-20T14:55:26;6.92;76.60
68177;DHT22;56478;50.982;7.032;2022-11-20T14:58:01;6.96;76.37
68177;DHT22;56478;50.982;7.032;2022-11-20T15:00:28;6.99;76.33
68177;DHT22;56478;50.982;7.032;2022-11-20T15:02:54;6.97;76.63
68177;DHT22;56478;50.982;7.032;2022-11-20T15:08:08;6.95;76.82
68177;DHT22;56478;50.982;7.032;2022-11-20T15:10:34;6.97;76.97
68177;DHT22;56478;50.982;7.032;2022-11-20T15:13:03;6.95;77.31
68177;DHT22;56478;50.982;7.032;2022-11-20T15:15:36;7.03;76.84
68177;DHT22;56478;50.982;7.032;2022-11-20T15:18:04;6.99;77.42
68177;DHT22;56478;50.982;7.032;2022-11-20T15:20:32;7.00;77.38
68177;DHT22;56478;50.982;7.032;2022-11-20T15:22:58;6.97;77.83
68177;DHT22;56478;50.982;7.032;2022-11-20T15:25:23;6.95;78.67
68177;DHT22;56478;50.982;7.032;2022-11-20T15:27:55;6.92;78.90
68177;DHT22;56478;50.982;7.032;2022-11-20T15:30:21;6.95;80.63
68177;DHT22;56478;50.982;7.032;2022-11-20T15:32:48;6.97;81.07
68177;DHT22;56478;50.982;7.032;2022-11-20T15:35:14;6.97;82.38
68177;DHT22;56478;50.982;7.032;2022-11-20T15:37:40;7.00;81.59
68177;DHT22;56478;50.982;7.032;2022-11-20T15:40:07;6.97;81.82
68177;DHT22;56478;50.982;7.032;2022-11-20T15:42:33;7.06;80.91
68177;DHT22;56478;50.982;7.032;2022-11-20T15:44:59;7.00;81.45
68177;DHT22;56478;50.982;7.032;2022-11-20T15:47:28;6.97;82.06
68177;DHT22;56478;50.982;7.032;2022-11-20T15:49:54;7.01;82.20
68177;DHT22;56478;50.982;7.032;2022-11-20T15:52:20;6.86;84.29
68177;DHT22;56478;50.982;7.032;2022-11-20T15:54:45;6.86;84.16
68177;DHT22;56478;50.982;7.032;2022-11-20T15:57:11;6.93;84.07
68177;DHT22;56478;50.982;7.032;2022-11-20T15:59:38;6.99;84.30
68177;DHT22;56478;50.982;7.032;2022-11-20T16:02:13;6.95;84.24
68177;DHT22;56478;50.982;7.032;2022-11-20T16:04:39;6.90;85.52
68177;DHT22;56478;50.982;7.032;2022-11-20T16:07:05;6.90;85.54
68177;DHT22;56478;50.982;7.032;2022-11-20T16:09:30;6.97;85.09
68177;DHT22;56478;50.982;7.032;2022-11-20T16:11:56;6.95;85.44
68177;DHT22;56478;50.982;7.032;2022-11-20T16:14:24;7.00;85.48
68177;DHT22;56478;50.982;7.032;2022-11-20T16:17:08;6.90;85.86
68177;DHT22;56478;50.982;7.032;2022-11-20T16:19:33;6.89;86.49
68177;DHT22;56478;50.982;7.032;2022-11-20T16:21:58;6.88;86.70
68177;DHT22;56478;50.982;7.032;2022-11-20T16:24:26;6.88;87.53
68177;DHT22;56478;50.982;7.032;2022-11-20T16:26:53;6.92;87.01
68177;DHT22;56478;50.982;7.032;2022-11-20T16:29:19;6.97;86.79
68177;DHT22;56478;50.982;7.032;2022-11-20T16:31:44;6.99;87.12
68177;DHT22;56478;50.982;7.032;2022-11-20T16:34:10;7.01;87.09
68177;DHT22;56478;50.982;7.032;2022-11-20T16:36:35;7.10;87.19
68177;DHT22;56478;50.982;7.032;2022-11-20T16:39:02;7.04;87.07
68177;DHT22;56478;50.982;7.032;2022-11-20T16:41:32;6.96;87.47
68177;DHT22;56478;50.982;7.032;2022-11-20T16:44:00;6.97;87.96
68177;DHT22;56478;50.982;7.032;2022-11-20T16:46:28;7.00;87.75
68177;DHT22;56478;50.982;7.032;2022-11-20T16:49:01;6.95;87.95
68177;DHT22;56478;50.982;7.032;2022-11-20T16:51:28;6.95;88.03
68177;DHT22;56478;50.982;7.032;2022-11-20T16:53:54;6.96;88.12
68177;DHT22;56478;50.982;7.032;2022-11-20T16:56:22;6.93;89.01
68177;DHT22;56478;50.982;7.032;2022-11-20T16:58:49;7.01;87.92
68177;DHT22;56478;50.982;7.032;2022-11-20T17:01:18;6.99;88.34
68177;DHT22;56478;50.982;7.032;2022-11-20T17:03:46;6.88;88.89
68177;DHT22;56478;50.982;7.032;2022-11-20T17:06:19;6.90;88.84
68177;DHT22;56478;50.982;7.032;2022-11-20T17:08:46;6.95;88.77
68177;DHT22;56478;50.982;7.032;2022-11-20T17:11:14;7.00;88.54
68177;DHT22;56478;50.982;7.032;2022-11-20T17:13:40;7.00;88.72
68177;DHT22;56478;50.982;7.032;2022-11-20T17:16:09;6.99;89.12
68177;DHT22;56478;50.982;7.032;2022-11-20T17:18:35;7.03;88.76
68177;DHT22;56478;50.982;7.032;2022-11-20T17:21:01;7.03;88.40
68177;DHT22;56478;50.982;7.032;2022-11-20T17:23:33;6.97;88.67
68177;DHT22;56478;50.982;7.032;2022-11-20T17:26:04;7.00;88.97
68177;DHT22;56478;50.982;7.032;2022-11-20T17:28:31;7.01;89.04